Terminal Aerodrome Forecast
Issued by NWS

Home | Current Version | Previous Version | Text Only | Print | Product List | Glossary On
Versions: 1 2 3 4 5 6 7 8 9 10 11 12 13 14 15 16 17 18 19 20 21 22 23 24 25
000
FTUS41 KCAR 191206 AAA
TAFHUL
TAF AMD
KHUL 191206Z 1912/2012 12011G21KT 5SM -RA BR SCT006 OVC015
     FM191900 17010G23KT P6SM -SHRA OVC008
     FM192200 22014G28KT P6SM VCSH BKN020
     FM200000 25013G29KT P6SM BKN040
     FM200900 27012G22KT P6SM SCT150=

USA.gov is the U.S. government's official web portal to all federal, state and local government web resources and services.